Terminal Aerodrome Forecast
Issued by NWS Charleston, WV

Home | Current Version | Previous Version | Text Only | Print | Product List | Glossary On
Versions: 1 2 3 4 5 6 7 8 9 10 11 12 13 14 15 16 17 18 19 20 21
000
FTUS41 KRLX 260540
TAFBKW
TAF
KBKW 260540Z 2606/2706 17004KT P6SM BKN050
     FM261300 19004KT P6SM SHRA VCTS OVC040CB
     FM261400 20004KT 5SM SHRA BR VCTS OVC025CB
     FM261500 21004KT 6SM SHRA BR VCTS BKN035CB
     FM261600 21005KT P6SM SHRA VCTS BKN040CB
     FM261700 20005KT P6SM VCTS BKN050CB=

USA.gov is the U.S. government's official web portal to all federal, state and local government web resources and services.